Tamiment, Pennsylvania
Current Conditions -  °F | °C
As of 3:53 AM on Saturday 22 Nov 2014 (Local Time) from KMPO Reporting Station
Clear Clear  
Wind Chill:   Ceiling: Unl
Heat Index: 14°   Visibility: 10mi
Dew Point:   Wind: 5mph
Humidity: 74%   Direction: 280°W
Pressure: 30.33"   Gusts: NA
Location:  41.14°N, 75.03°W
Report Text: KMPO 220853Z AUTO 28004KT 10SM CLR M10/M14 A3033 RMK AO2 SLP303 T11001139 58013
Loading
Personal Weather Stations






























Interactive Weather Map New forecast layout! Learn more

10-Day Weather Forecast

Advertisements
Track Severe Weather on mobile